sensor_id;sensor_type;location;lat;lon;timestamp;pressure;altitude;pressure_sealevel;temperature;humidity
64025;BME280;50266;57.446;26.936;2023-02-15T00:00:24;100757.59;;;-0.55;100.0
64025;BME280;50266;57.446;26.936;2023-02-15T00:01:24;100754.55;;;-0.58;100.0
64025;BME280;50266;57.446;26.936;2023-02-15T00:02:24;100752.52;;;-0.63;100.0
64025;BME280;50266;57.446;26.936;2023-02-15T00:03:24;100753.66;;;-0.63;100.0
64025;BME280;50266;57.446;26.936;2023-02-15T00:04:24;100752.25;;;-0.65;100.0
64025;BME280;50266;57.446;26.936;2023-02-15T00:05:24;100756.86;;;-0.67;100.0
64025;BME280;50266;57.446;26.936;2023-02-15T00:06:24;100752.95;;;-0.67;100.0
64025;BME280;50266;57.446;26.936;2023-02-15T00:07:24;100749.84;;;-0.72;100.0
64025;BME280;50266;57.446;26.936;2023-02-15T00:08:24;100749.3;;;-0.67;100.0
64025;BME280;50266;57.446;26.936;2023-02-15T00:09:24;100748.38;;;-0.64;100.0
64025;BME280;50266;57.446;26.936;2023-02-15T00:10:24;100748.11;;;-0.63;100.0
64025;BME280;50266;57.446;26.936;2023-02-15T00:11:24;100748.55;;;-0.62;100.0
64025;BME280;50266;57.446;26.936;2023-02-15T00:12:24;100745.62;;;-0.56;100.0
64025;BME280;50266;57.446;26.936;2023-02-15T00:13:24;100746.98;;;-0.56;100.0
64025;BME280;50266;57.446;26.936;2023-02-15T00:14:24;100750.14;;;-0.58;100.0
64025;BME280;50266;57.446;26.936;2023-02-15T00:15:24;100745.61;;;-0.63;100.0
64025;BME280;50266;57.446;26.936;2023-02-15T00:16:24;100750.72;;;-0.68;100.0
64025;BME280;50266;57.446;26.936;2023-02-15T00:17:26;100748.41;;;-0.56;100.0
64025;BME280;50266;57.446;26.936;2023-02-15T00:18:24;100752.05;;;-0.5;100.0
64025;BME280;50266;57.446;26.936;2023-02-15T00:19:24;100754.16;;;-0.43;100.0
64025;BME280;50266;57.446;26.936;2023-02-15T00:20:24;100752.44;;;-0.31;100.0
64025;BME280;50266;57.446;26.936;2023-02-15T00:21:24;100754.59;;;-0.43;100.0
64025;BME280;50266;57.446;26.936;2023-02-15T00:22:25;100752.97;;;-0.5;100.0
64025;BME280;50266;57.446;26.936;2023-02-15T00:23:25;100753.91;;;-0.4;100.0
64025;BME280;50266;57.446;26.936;2023-02-15T00:24:24;100750.95;;;-0.45;100.0
64025;BME280;50266;57.446;26.936;2023-02-15T00:25:24;100754.06;;;-0.52;100.0
64025;BME280;50266;57.446;26.936;2023-02-15T00:26:24;100754.71;;;-0.48;100.0
64025;BME280;50266;57.446;26.936;2023-02-15T00:27:24;100749.7;;;-0.52;100.0
64025;BME280;50266;57.446;26.936;2023-02-15T00:28:24;100755.69;;;-0.46;100.0
64025;BME280;50266;57.446;26.936;2023-02-15T00:29:24;100754.17;;;-0.47;100.0
64025;BME280;50266;57.446;26.936;2023-02-15T00:30:24;100754.55;;;-0.52;100.0
64025;BME280;50266;57.446;26.936;2023-02-15T00:31:25;100755.42;;;-0.5;100.0
64025;BME280;50266;57.446;26.936;2023-02-15T00:32:25;100758.47;;;-0.47;100.0
64025;BME280;50266;57.446;26.936;2023-02-15T00:33:24;100758.57;;;-0.43;100.0
64025;BME280;50266;57.446;26.936;2023-02-15T00:34:25;100760.53;;;-0.43;100.0
64025;BME280;50266;57.446;26.936;2023-02-15T00:35:25;100760.7;;;-0.47;100.0
64025;BME280;50266;57.446;26.936;2023-02-15T00:36:24;100758.48;;;-0.39;100.0
64025;BME280;50266;57.446;26.936;2023-02-15T00:37:24;100759.57;;;-0.4;100.0
64025;BME280;50266;57.446;26.936;2023-02-15T00:38:25;100757.38;;;-0.29;100.0
64025;BME280;50266;57.446;26.936;2023-02-15T00:39:24;100754.23;;;-0.33;100.0
64025;BME280;50266;57.446;26.936;2023-02-15T00:40:25;100756.52;;;-0.32;100.0
64025;BME280;50266;57.446;26.936;2023-02-15T00:41:25;100757.28;;;-0.36;100.0
64025;BME280;50266;57.446;26.936;2023-02-15T00:42:25;100754.6;;;-0.25;100.0
64025;BME280;50266;57.446;26.936;2023-02-15T00:43:25;100758.48;;;-0.32;100.0
64025;BME280;50266;57.446;26.936;2023-02-15T00:44:25;100750.47;;;-0.14;100.0
64025;BME280;50266;57.446;26.936;2023-02-15T00:45:25;100753.08;;;-0.29;100.0
64025;BME280;50266;57.446;26.936;2023-02-15T00:46:25;100753.15;;;-0.4;100.0
64025;BME280;50266;57.446;26.936;2023-02-15T00:47:25;100750.48;;;-0.33;100.0
64025;BME280;50266;57.446;26.936;2023-02-15T00:48:25;100753.69;;;-0.36;100.0
64025;BME280;50266;57.446;26.936;2023-02-15T00:49:25;100756.5;;;-0.44;100.0
64025;BME280;50266;57.446;26.936;2023-02-15T00:50:25;100751.46;;;-0.4;100.0
64025;BME280;50266;57.446;26.936;2023-02-15T00:51:25;100757.06;;;-0.34;100.0
64025;BME280;50266;57.446;26.936;2023-02-15T00:52:25;100754.94;;;-0.27;100.0
64025;BME280;50266;57.446;26.936;2023-02-15T00:53:25;100756.52;;;-0.38;100.0
64025;BME280;50266;57.446;26.936;2023-02-15T00:54:25;100753.73;;;-0.42;100.0
64025;BME280;50266;57.446;26.936;2023-02-15T00:55:25;100757.94;;;-0.39;100.0
64025;BME280;50266;57.446;26.936;2023-02-15T00:56:25;100753.8;;;-0.4;100.0
64025;BME280;50266;57.446;26.936;2023-02-15T00:57:25;100758.42;;;-0.32;100.0
64025;BME280;50266;57.446;26.936;2023-02-15T00:58:25;100750.05;;;-0.4;100.0
64025;BME280;50266;57.446;26.936;2023-02-15T00:59:25;100752.04;;;-0.41;100.0
64025;BME280;50266;57.446;26.936;2023-02-15T01:00:25;100750.64;;;-0.38;100.0
64025;BME280;50266;57.446;26.936;2023-02-15T01:01:25;100741.44;;;-0.41;100.0
64025;BME280;50266;57.446;26.936;2023-02-15T01:02:25;100743.77;;;-0.44;100.0
64025;BME280;50266;57.446;26.936;2023-02-15T01:03:25;100743.94;;;-0.48;100.0
64025;BME280;50266;57.446;26.936;2023-02-15T01:04:25;100737.84;;;-0.47;100.0
64025;BME280;50266;57.446;26.936;2023-02-15T01:05:25;100739.98;;;-0.36;100.0
64025;BME280;50266;57.446;26.936;2023-02-15T01:06:25;100731.75;;;-0.46;100.0
64025;BME280;50266;57.446;26.936;2023-02-15T01:07:25;100732.78;;;-0.47;100.0
64025;BME280;50266;57.446;26.936;2023-02-15T01:08:25;100732.2;;;-0.38;100.0
64025;BME280;50266;57.446;26.936;2023-02-15T01:09:25;100735.19;;;-0.35;100.0
64025;BME280;50266;57.446;26.936;2023-02-15T01:10:25;100723.27;;;-0.44;100.0
64025;BME280;50266;57.446;26.936;2023-02-15T01:11:25;100722.45;;;-0.46;100.0
64025;BME280;50266;57.446;26.936;2023-02-15T01:12:25;100722.06;;;-0.45;100.0
64025;BME280;50266;57.446;26.936;2023-02-15T01:13:25;100723.0;;;-0.37;100.0
64025;BME280;50266;57.446;26.936;2023-02-15T01:14:25;100721.1;;;-0.4;100.0
64025;BME280;50266;57.446;26.936;2023-02-15T01:15:25;100718.38;;;-0.5;100.0
64025;BME280;50266;57.446;26.936;2023-02-15T01:16:26;100715.7;;;-0.48;100.0
64025;BME280;50266;57.446;26.936;2023-02-15T01:17:25;100716.41;;;-0.45;100.0
64025;BME280;50266;57.446;26.936;2023-02-15T01:18:25;100716.52;;;-0.34;100.0
64025;BME280;50266;57.446;26.936;2023-02-15T01:19:25;100716.67;;;-0.41;100.0
64025;BME280;50266;57.446;26.936;2023-02-15T01:20:33;100719.2;;;-0.38;100.0
64025;BME280;50266;57.446;26.936;2023-02-15T01:21:30;100715.83;;;-0.39;100.0
64025;BME280;50266;57.446;26.936;2023-02-15T01:22:30;100713.27;;;-0.37;100.0
64025;BME280;50266;57.446;26.936;2023-02-15T01:23:32;100719.73;;;-0.39;100.0
64025;BME280;50266;57.446;26.936;2023-02-15T01:24:30;100719.58;;;-0.37;100.0
64025;BME280;50266;57.446;26.936;2023-02-15T01:25:30;100717.82;;;-0.42;100.0
64025;BME280;50266;57.446;26.936;2023-02-15T01:26:30;100718.1;;;-0.34;100.0
64025;BME280;50266;57.446;26.936;2023-02-15T01:27:30;100720.77;;;-0.4;100.0
64025;BME280;50266;57.446;26.936;2023-02-15T01:28:31;100719.62;;;-0.38;100.0
64025;BME280;50266;57.446;26.936;2023-02-15T01:29:30;100714.44;;;-0.26;100.0
64025;BME280;50266;57.446;26.936;2023-02-15T01:30:31;100716.2;;;-0.33;100.0
64025;BME280;50266;57.446;26.936;2023-02-15T01:31:30;100717.28;;;-0.35;100.0
64025;BME280;50266;57.446;26.936;2023-02-15T01:32:30;100718.8;;;-0.43;100.0
64025;BME280;50266;57.446;26.936;2023-02-15T01:33:31;100715.98;;;-0.36;100.0
64025;BME280;50266;57.446;26.936;2023-02-15T01:34:30;100717.45;;;-0.33;100.0
64025;BME280;50266;57.446;26.936;2023-02-15T01:35:31;100718.97;;;-0.34;100.0
64025;BME280;50266;57.446;26.936;2023-02-15T01:36:30;100719.52;;;-0.34;100.0
64025;BME280;50266;57.446;26.936;2023-02-15T01:37:31;100721.42;;;-0.33;100.0
64025;BME280;50266;57.446;26.936;2023-02-15T01:38:30;100719.28;;;-0.26;100.0
64025;BME280;50266;57.446;26.936;2023-02-15T01:39:30;100721.95;;;-0.3;100.0
64025;BME280;50266;57.446;26.936;2023-02-15T01:40:30;100717.38;;;-0.29;100.0
64025;BME280;50266;57.446;26.936;2023-02-15T01:41:30;100711.5;;;-0.14;100.0
64025;BME280;50266;57.446;26.936;2023-02-15T01:42:31;100713.36;;;-0.3;100.0
64025;BME280;50266;57.446;26.936;2023-02-15T01:43:40;100716.3;;;-0.31;100.0
64025;BME280;50266;57.446;26.936;2023-02-15T01:44:51;100719.02;;;-0.33;100.0
64025;BME280;50266;57.446;26.936;2023-02-15T01:45:33;100717.38;;;-0.28;100.0
64025;BME280;50266;57.446;26.936;2023-02-15T01:46:34;100715.9;;;-0.13;100.0
64025;BME280;50266;57.446;26.936;2023-02-15T01:47:50;100717.53;;;-0.11;100.0
64025;BME280;50266;57.446;26.936;2023-02-15T01:48:33;100716.28;;;-0.22;100.0
64025;BME280;50266;57.446;26.936;2023-02-15T01:49:33;100714.22;;;-0.14;100.0
64025;BME280;50266;57.446;26.936;2023-02-15T01:50:34;100717.33;;;-0.27;100.0
64025;BME280;50266;57.446;26.936;2023-02-15T01:51:33;100713.95;;;-0.3;100.0
64025;BME280;50266;57.446;26.936;2023-02-15T01:52:33;100714.06;;;-0.29;100.0
64025;BME280;50266;57.446;26.936;2023-02-15T01:53:34;100717.06;;;-0.33;100.0
64025;BME280;50266;57.446;26.936;2023-02-15T01:54:34;100712.27;;;-0.27;100.0
64025;BME280;50266;57.446;26.936;2023-02-15T01:55:38;100708.24;;;-0.29;100.0
64025;BME280;50266;57.446;26.936;2023-02-15T01:56:36;100709.07;;;-0.37;100.0
64025;BME280;50266;57.446;26.936;2023-02-15T01:57:35;100710.27;;;-0.33;100.0
64025;BME280;50266;57.446;26.936;2023-02-15T01:58:35;100709.06;;;-0.41;100.0
64025;BME280;50266;57.446;26.936;2023-02-15T01:59:35;100699.96;;;-0.24;100.0
64025;BME280;50266;57.446;26.936;2023-02-15T02:00:35;100704.61;;;-0.34;100.0
64025;BME280;50266;57.446;26.936;2023-02-15T02:01:35;100706.19;;;-0.39;100.0
64025;BME280;50266;57.446;26.936;2023-02-15T02:02:35;100701.06;;;-0.45;100.0
64025;BME280;50266;57.446;26.936;2023-02-15T02:04:56;100705.47;;;-0.46;100.0
64025;BME280;50266;57.446;26.936;2023-02-15T02:05:39;100703.67;;;-0.45;100.0
64025;BME280;50266;57.446;26.936;2023-02-15T02:06:39;100705.75;;;-0.48;100.0
64025;BME280;50266;57.446;26.936;2023-02-15T02:07:40;100701.28;;;-0.47;100.0
64025;BME280;50266;57.446;26.936;2023-02-15T02:08:39;100705.74;;;-0.43;100.0
64025;BME280;50266;57.446;26.936;2023-02-15T02:09:39;100702.88;;;-0.39;100.0
64025;BME280;50266;57.446;26.936;2023-02-15T02:10:39;100703.86;;;-0.4;100.0
64025;BME280;50266;57.446;26.936;2023-02-15T02:11:39;100699.58;;;-0.22;100.0
64025;BME280;50266;57.446;26.936;2023-02-15T02:12:39;100706.06;;;-0.27;100.0
64025;BME280;50266;57.446;26.936;2023-02-15T02:13:42;100698.72;;;-0.29;100.0
64025;BME280;50266;57.446;26.936;2023-02-15T02:14:39;100698.44;;;-0.25;100.0
64025;BME280;50266;57.446;26.936;2023-02-15T02:15:43;100699.53;;;-0.28;100.0
64025;BME280;50266;57.446;26.936;2023-02-15T02:19:55;100701.5;;;-0.31;100.0
64025;BME280;50266;57.446;26.936;2023-02-15T02:24:11;100693.61;;;-0.32;100.0
64025;BME280;50266;57.446;26.936;2023-02-15T02:25:12;100692.29;;;-0.24;100.0
64025;BME280;50266;57.446;26.936;2023-02-15T02:29:21;100683.77;;;-0.35;100.0
64025;BME280;50266;57.446;26.936;2023-02-15T02:31:26;100675.71;;;-0.45;100.0
64025;BME280;50266;57.446;26.936;2023-02-15T02:32:48;100679.84;;;-0.43;100.0
64025;BME280;50266;57.446;26.936;2023-02-15T02:33:41;100679.58;;;-0.47;100.0
64025;BME280;50266;57.446;26.936;2023-02-15T02:34:31;100679.21;;;-0.53;100.0
64025;BME280;50266;57.446;26.936;2023-02-15T02:35:31;100679.47;;;-0.49;100.0
64025;BME280;50266;57.446;26.936;2023-02-15T02:37:38;100676.19;;;-0.29;100.0
64025;BME280;50266;57.446;26.936;2023-02-15T02:41:02;100670.34;;;-0.22;100.0
64025;BME280;50266;57.446;26.936;2023-02-15T02:41:58;100672.05;;;-0.19;100.0
64025;BME280;50266;57.446;26.936;2023-02-15T02:43:10;100670.33;;;-0.37;100.0
64025;BME280;50266;57.446;26.936;2023-02-15T02:43:54;100670.05;;;-0.33;100.0
64025;BME280;50266;57.446;26.936;2023-02-15T02:45:15;100674.22;;;-0.24;100.0
64025;BME280;50266;57.446;26.936;2023-02-15T02:45:58;100675.17;;;-0.44;100.0
64025;BME280;50266;57.446;26.936;2023-02-15T02:47:59;100670.69;;;-0.26;100.0
64025;BME280;50266;57.446;26.936;2023-02-15T02:48:58;100666.4;;;-0.3;100.0
64025;BME280;50266;57.446;26.936;2023-02-15T02:49:59;100668.69;;;-0.33;100.0
64025;BME280;50266;57.446;26.936;2023-02-15T02:50:58;100664.68;;;-0.4;100.0
64025;BME280;50266;57.446;26.936;2023-02-15T02:52:01;100670.0;;;-0.38;100.0
64025;BME280;50266;57.446;26.936;2023-02-15T02:52:58;100669.73;;;-0.35;100.0
64025;BME280;50266;57.446;26.936;2023-02-15T02:53:59;100670.38;;;-0.31;100.0
64025;BME280;50266;57.446;26.936;2023-02-15T02:54:58;100669.66;;;-0.31;100.0
64025;BME280;50266;57.446;26.936;2023-02-15T02:57:03;100670.31;;;-0.29;100.0
64025;BME280;50266;57.446;26.936;2023-02-15T02:58:09;100673.35;;;-0.26;100.0
64025;BME280;50266;57.446;26.936;2023-02-15T02:59:07;100672.48;;;-0.28;100.0
64025;BME280;50266;57.446;26.936;2023-02-15T03:00:03;100673.48;;;-0.38;100.0
64025;BME280;50266;57.446;26.936;2023-02-15T03:01:19;100676.05;;;-0.39;100.0
64025;BME280;50266;57.446;26.936;2023-02-15T03:02:11;100678.21;;;-0.32;100.0
64025;BME280;50266;57.446;26.936;2023-02-15T03:03:09;100677.76;;;-0.26;100.0
64025;BME280;50266;57.446;26.936;2023-02-15T03:04:11;100683.59;;;-0.31;100.0
64025;BME280;50266;57.446;26.936;2023-02-15T03:05:10;100682.67;;;-0.35;100.0
64025;BME280;50266;57.446;26.936;2023-02-15T03:06:12;100687.52;;;-0.35;100.0
64025;BME280;50266;57.446;26.936;2023-02-15T03:07:11;100684.64;;;-0.39;100.0
64025;BME280;50266;57.446;26.936;2023-02-15T03:08:10;100683.38;;;-0.41;100.0
64025;BME280;50266;57.446;26.936;2023-02-15T03:09:14;100681.48;;;-0.46;100.0
64025;BME280;50266;57.446;26.936;2023-02-15T03:10:14;100682.73;;;-0.48;100.0
64025;BME280;50266;57.446;26.936;2023-02-15T03:11:14;100680.84;;;-0.51;100.0
64025;BME280;50266;57.446;26.936;2023-02-15T03:12:16;100685.41;;;-0.5;100.0
64025;BME280;50266;57.446;26.936;2023-02-15T03:13:14;100682.41;;;-0.49;100.0
64025;BME280;50266;57.446;26.936;2023-02-15T03:14:14;100681.16;;;-0.49;100.0
64025;BME280;50266;57.446;26.936;2023-02-15T03:15:21;100679.09;;;-0.5;100.0
64025;BME280;50266;57.446;26.936;2023-02-15T03:16:19;100687.25;;;-0.49;100.0
64025;BME280;50266;57.446;26.936;2023-02-15T03:17:19;100679.97;;;-0.54;100.0
64025;BME280;50266;57.446;26.936;2023-02-15T03:18:20;100682.14;;;-0.49;100.0
64025;BME280;50266;57.446;26.936;2023-02-15T03:19:21;100685.34;;;-0.43;100.0
64025;BME280;50266;57.446;26.936;2023-02-15T03:20:35;100680.81;;;-0.31;100.0
64025;BME280;50266;57.446;26.936;2023-02-15T03:21:29;100682.23;;;-0.3;100.0
64025;BME280;50266;57.446;26.936;2023-02-15T03:22:31;100683.59;;;-0.29;100.0
64025;BME280;50266;57.446;26.936;2023-02-15T03:23:29;100682.95;;;-0.51;100.0
64025;BME280;50266;57.446;26.936;2023-02-15T03:24:34;100675.0;;;-0.41;100.0
64025;BME280;50266;57.446;26.936;2023-02-15T03:25:33;100678.33;;;-0.65;100.0
64025;BME280;50266;57.446;26.936;2023-02-15T03:26:32;100680.95;;;-0.58;100.0
64025;BME280;50266;57.446;26.936;2023-02-15T03:27:38;100677.95;;;-0.62;100.0
64025;BME280;50266;57.446;26.936;2023-02-15T03:28:42;100678.7;;;-0.44;100.0
64025;BME280;50266;57.446;26.936;2023-02-15T03:29:39;100680.73;;;-0.65;100.0
64025;BME280;50266;57.446;26.936;2023-02-15T03:30:39;100676.82;;;-0.8;100.0
64025;BME280;50266;57.446;26.936;2023-02-15T03:31:40;100669.09;;;-0.82;100.0
64025;BME280;50266;57.446;26.936;2023-02-15T03:32:39;100672.66;;;-0.89;100.0
64025;BME280;50266;57.446;26.936;2023-02-15T03:33:42;100672.5;;;-0.85;100.0
64025;BME280;50266;57.446;26.936;2023-02-15T03:34:41;100673.7;;;-0.85;100.0
64025;BME280;50266;57.446;26.936;2023-02-15T03:36:52;100667.67;;;-0.94;100.0
64025;BME280;50266;57.446;26.936;2023-02-15T03:37:48;100671.91;;;-0.9;100.0
64025;BME280;50266;57.446;26.936;2023-02-15T03:38:50;100667.02;;;-0.9;100.0
64025;BME280;50266;57.446;26.936;2023-02-15T03:40:54;100663.38;;;-0.9;100.0
64025;BME280;50266;57.446;26.936;2023-02-15T03:43:03;100661.91;;;-0.67;100.0
64025;BME280;50266;57.446;26.936;2023-02-15T03:44:06;100660.17;;;-0.66;100.0
64025;BME280;50266;57.446;26.936;2023-02-15T03:45:10;100661.21;;;-0.61;100.0
64025;BME280;50266;57.446;26.936;2023-02-15T03:47:13;100662.39;;;-0.64;100.0
64025;BME280;50266;57.446;26.936;2023-02-15T03:48:12;100659.86;;;-0.61;100.0
64025;BME280;50266;57.446;26.936;2023-02-15T03:49:14;100653.97;;;-0.54;100.0
64025;BME280;50266;57.446;26.936;2023-02-15T03:50:18;100654.56;;;-0.54;100.0
64025;BME280;50266;57.446;26.936;2023-02-15T03:51:19;100654.67;;;-0.55;100.0
64025;BME280;50266;57.446;26.936;2023-02-15T03:52:18;100659.57;;;-0.53;100.0
64025;BME280;50266;57.446;26.936;2023-02-15T03:53:18;100659.34;;;-0.5;100.0
64025;BME280;50266;57.446;26.936;2023-02-15T03:54:20;100658.84;;;-0.44;100.0
64025;BME280;50266;57.446;26.936;2023-02-15T03:55:18;100661.08;;;-0.45;100.0
64025;BME280;50266;57.446;26.936;2023-02-15T03:56:18;100657.92;;;-0.44;100.0
64025;BME280;50266;57.446;26.936;2023-02-15T03:57:22;100662.88;;;-0.38;100.0
64025;BME280;50266;57.446;26.936;2023-02-15T03:58:19;100659.06;;;-0.36;100.0
64025;BME280;50266;57.446;26.936;2023-02-15T03:59:19;100658.01;;;-0.27;100.0
64025;BME280;50266;57.446;26.936;2023-02-15T04:00:21;100654.65;;;-0.32;100.0
64025;BME280;50266;57.446;26.936;2023-02-15T04:01:26;100654.33;;;-0.35;100.0
64025;BME280;50266;57.446;26.936;2023-02-15T04:02:24;100655.14;;;-0.35;100.0
64025;BME280;50266;57.446;26.936;2023-02-15T04:03:33;100652.92;;;-0.39;100.0
64025;BME280;50266;57.446;26.936;2023-02-15T04:04:33;100652.19;;;-0.27;100.0
64025;BME280;50266;57.446;26.936;2023-02-15T04:05:31;100653.19;;;-0.37;100.0
64025;BME280;50266;57.446;26.936;2023-02-15T04:06:31;100650.58;;;-0.35;100.0
64025;BME280;50266;57.446;26.936;2023-02-15T04:07:31;100651.23;;;-0.4;100.0
64025;BME280;50266;57.446;26.936;2023-02-15T04:08:31;100648.5;;;-0.43;100.0
64025;BME280;50266;57.446;26.936;2023-02-15T04:09:31;100647.74;;;-0.43;100.0
64025;BME280;50266;57.446;26.936;2023-02-15T04:10:31;100649.16;;;-0.42;100.0
64025;BME280;50266;57.446;26.936;2023-02-15T04:11:31;100648.34;;;-0.38;100.0
64025;BME280;50266;57.446;26.936;2023-02-15T04:12:31;100648.5;;;-0.32;100.0
64025;BME280;50266;57.446;26.936;2023-02-15T04:13:31;100646.92;;;-0.32;100.0
64025;BME280;50266;57.446;26.936;2023-02-15T04:14:31;100649.05;;;-0.32;100.0
64025;BME280;50266;57.446;26.936;2023-02-15T04:15:31;100647.45;;;-0.27;100.0
64025;BME280;50266;57.446;26.936;2023-02-15T04:16:31;100647.82;;;-0.23;100.0
64025;BME280;50266;57.446;26.936;2023-02-15T04:17:31;100649.56;;;-0.22;100.0
64025;BME280;50266;57.446;26.936;2023-02-15T04:18:32;100649.29;;;-0.23;100.0
64025;BME280;50266;57.446;26.936;2023-02-15T04:19:31;100649.34;;;-0.2;100.0
64025;BME280;50266;57.446;26.936;2023-02-15T04:20:31;100648.63;;;-0.16;100.0
64025;BME280;50266;57.446;26.936;2023-02-15T04:21:31;100649.19;;;-0.19;100.0
64025;BME280;50266;57.446;26.936;2023-02-15T04:22:31;100649.57;;;-0.19;100.0
64025;BME280;50266;57.446;26.936;2023-02-15T04:23:31;100651.69;;;-0.18;100.0
64025;BME280;50266;57.446;26.936;2023-02-15T04:24:31;100646.67;;;-0.21;100.0
64025;BME280;50266;57.446;26.936;2023-02-15T04:25:31;100650.15;;;-0.14;100.0
64025;BME280;50266;57.446;26.936;2023-02-15T04:26:31;100642.08;;;0.0;100.0
64025;BME280;50266;57.446;26.936;2023-02-15T04:27:31;100648.68;;;-0.14;100.0
64025;BME280;50266;57.446;26.936;2023-02-15T04:28:31;100649.88;;;-0.21;100.0
64025;BME280;50266;57.446;26.936;2023-02-15T04:29:31;100652.06;;;-0.23;100.0
64025;BME280;50266;57.446;26.936;2023-02-15T04:30:31;100649.89;;;-0.24;100.0
64025;BME280;50266;57.446;26.936;2023-02-15T04:31:31;100650.27;;;-0.23;100.0
64025;BME280;50266;57.446;26.936;2023-02-15T04:32:31;100647.02;;;-0.27;100.0
64025;BME280;50266;57.446;26.936;2023-02-15T04:33:31;100648.53;;;-0.18;100.0
64025;BME280;50266;57.446;26.936;2023-02-15T04:34:31;100649.34;;;-0.23;100.0
64025;BME280;50266;57.446;26.936;2023-02-15T04:35:31;100650.55;;;-0.27;100.0
64025;BME280;50266;57.446;26.936;2023-02-15T04:36:31;100649.12;;;-0.24;100.0
64025;BME280;50266;57.446;26.936;2023-02-15T04:37:31;100646.73;;;-0.23;100.0
64025;BME280;50266;57.446;26.936;2023-02-15T04:38:31;100646.91;;;-0.19;100.0
64025;BME280;50266;57.446;26.936;2023-02-15T04:39:31;100646.34;;;-0.22;100.0
64025;BME280;50266;57.446;26.936;2023-02-15T04:40:31;100647.98;;;-0.23;100.0
64025;BME280;50266;57.446;26.936;2023-02-15T04:41:31;100647.48;;;-0.37;100.0
64025;BME280;50266;57.446;26.936;2023-02-15T04:42:31;100646.0;;;-0.36;100.0
64025;BME280;50266;57.446;26.936;2023-02-15T04:43:31;100644.89;;;-0.25;100.0
64025;BME280;50266;57.446;26.936;2023-02-15T04:44:31;100641.78;;;-0.17;100.0
64025;BME280;50266;57.446;26.936;2023-02-15T04:45:31;100643.78;;;-0.2;100.0
64025;BME280;50266;57.446;26.936;2023-02-15T04:46:31;100640.36;;;-0.23;100.0
64025;BME280;50266;57.446;26.936;2023-02-15T04:47:31;100642.56;;;-0.3;100.0
64025;BME280;50266;57.446;26.936;2023-02-15T04:48:31;100638.32;;;-0.32;100.0
64025;BME280;50266;57.446;26.936;2023-02-15T04:49:31;100632.39;;;-0.3;100.0
64025;BME280;50266;57.446;26.936;2023-02-15T04:50:31;100629.11;;;-0.26;100.0
64025;BME280;50266;57.446;26.936;2023-02-15T04:51:31;100631.22;;;-0.22;100.0
64025;BME280;50266;57.446;26.936;2023-02-15T04:52:31;100631.31;;;-0.13;100.0
64025;BME280;50266;57.446;26.936;2023-02-15T04:53:31;100637.09;;;-0.21;100.0
64025;BME280;50266;57.446;26.936;2023-02-15T04:54:31;100637.64;;;-0.21;100.0
64025;BME280;50266;57.446;26.936;2023-02-15T04:55:31;100638.34;;;-0.16;100.0
64025;BME280;50266;57.446;26.936;2023-02-15T04:56:31;100635.14;;;-0.19;100.0
64025;BME280;50266;57.446;26.936;2023-02-15T04:57:31;100643.41;;;-0.17;100.0
64025;BME280;50266;57.446;26.936;2023-02-15T04:58:31;100639.27;;;-0.14;100.0
64025;BME280;50266;57.446;26.936;2023-02-15T04:59:31;100640.91;;;-0.18;100.0
64025;BME280;50266;57.446;26.936;2023-02-15T05:00:31;100641.31;;;-0.08;100.0
64025;BME280;50266;57.446;26.936;2023-02-15T05:01:31;100638.73;;;-0.03;100.0
64025;BME280;50266;57.446;26.936;2023-02-15T05:02:31;100644.69;;;-0.07;100.0
64025;BME280;50266;57.446;26.936;2023-02-15T05:03:31;100642.8;;;0.0;100.0
64025;BME280;50266;57.446;26.936;2023-02-15T05:04:31;100650.0;;;-0.04;100.0
64025;BME280;50266;57.446;26.936;2023-02-15T05:05:31;100644.17;;;0.06;100.0
64025;BME280;50266;57.446;26.936;2023-02-15T05:06:31;100641.26;;;0.01;100.0
64025;BME280;50266;57.446;26.936;2023-02-15T05:07:31;100642.67;;;0.0;100.0
64025;BME280;50266;57.446;26.936;2023-02-15T05:08:31;100641.45;;;-0.03;100.0
64025;BME280;50266;57.446;26.936;2023-02-15T05:09:31;100640.16;;;-0.08;100.0
64025;BME280;50266;57.446;26.936;2023-02-15T05:10:31;100642.4;;;-0.07;100.0
64025;BME280;50266;57.446;26.936;2023-02-15T05:11:31;100641.91;;;-0.07;100.0
64025;BME280;50266;57.446;26.936;2023-02-15T05:12:31;100639.22;;;-0.04;100.0
64025;BME280;50266;57.446;26.936;2023-02-15T05:13:31;100639.43;;;-0.01;100.0
64025;BME280;50266;57.446;26.936;2023-02-15T05:14:31;100638.67;;;0.06;100.0
64025;BME280;50266;57.446;26.936;2023-02-15T05:15:31;100639.73;;;0.13;100.0
64025;BME280;50266;57.446;26.936;2023-02-15T05:16:31;100640.41;;;0.09;100.0
64025;BME280;50266;57.446;26.936;2023-02-15T05:17:31;100640.33;;;0.14;100.0
64025;BME280;50266;57.446;26.936;2023-02-15T05:18:32;100639.54;;;0.07;100.0
64025;BME280;50266;57.446;26.936;2023-02-15T05:19:31;100644.98;;;0.07;100.0
64025;BME280;50266;57.446;26.936;2023-02-15T05:20:32;100641.53;;;0.12;100.0
64025;BME280;50266;57.446;26.936;2023-02-15T05:21:32;100638.95;;;0.06;100.0
64025;BME280;50266;57.446;26.936;2023-02-15T05:22:32;100642.05;;;0.07;100.0
64025;BME280;50266;57.446;26.936;2023-02-15T05:23:32;100639.93;;;0.17;100.0
64025;BME280;50266;57.446;26.936;2023-02-15T05:24:32;100634.28;;;0.15;100.0
64025;BME280;50266;57.446;26.936;2023-02-15T05:25:32;100638.52;;;0.15;100.0
64025;BME280;50266;57.446;26.936;2023-02-15T05:26:32;100639.45;;;0.14;100.0
64025;BME280;50266;57.446;26.936;2023-02-15T05:27:32;100634.71;;;0.16;100.0
64025;BME280;50266;57.446;26.936;2023-02-15T05:28:32;100635.63;;;0.16;100.0
64025;BME280;50266;57.446;26.936;2023-02-15T05:29:32;100639.03;;;0.12;100.0
64025;BME280;50266;57.446;26.936;2023-02-15T05:30:32;100638.22;;;0.1;100.0
64025;BME280;50266;57.446;26.936;2023-02-15T05:31:32;100634.62;;;0.1;100.0
64025;BME280;50266;57.446;26.936;2023-02-15T05:32:32;100641.98;;;0.1;100.0
64025;BME280;50266;57.446;26.936;2023-02-15T05:33:32;100635.77;;;0.11;100.0